Lemmon Valley, Nevada
Current Conditions -  °F | °C
As of 4:15 PM on Wednesday 22 Oct 2014 (Local Time) from KRTS Reporting Station
Clear Clear  
Wind Chill: 64°   Ceiling: Unl
Heat Index: 64°   Visibility: 10mi
Dew Point: 27°   Wind: 3mph
Humidity: 24%   Direction: 290°WNW
Pressure: 30.08"   Gusts: NA
Location:  39.7378°N, 119.889°W
Report Text: KRTS 222315Z AUTO 29003KT 10SM CLR 18/M03 A3008 RMK AO2
Loading
Personal Weather Stations






























Interactive Weather Map
Tropical Storm Tracking
New forecast layout! Learn more

10-Day Weather Forecast

Advertisements
Track Severe Weather on mobile